sensor_id;sensor_type;location;lat;lon;timestamp;P1;durP1;ratioP1;P2;durP2;ratioP2
18405;SDS011;9329;48.720;9.588;2022-07-23T00:00:15;8.77;;;7.30;;
18405;SDS011;9329;48.720;9.588;2022-07-23T00:02:43;8.30;;;6.97;;
18405;SDS011;9329;48.720;9.588;2022-07-23T00:05:10;11.03;;;7.43;;
18405;SDS011;9329;48.720;9.588;2022-07-23T00:07:37;8.80;;;6.60;;
18405;SDS011;9329;48.720;9.588;2022-07-23T00:10:05;11.13;;;6.80;;
18405;SDS011;9329;48.720;9.588;2022-07-23T00:12:34;11.73;;;7.30;;
18405;SDS011;9329;48.720;9.588;2022-07-23T00:15:02;9.32;;;6.47;;
18405;SDS011;9329;48.720;9.588;2022-07-23T00:17:29;10.02;;;6.72;;
18405;SDS011;9329;48.720;9.588;2022-07-23T00:19:56;8.18;;;6.10;;
18405;SDS011;9329;48.720;9.588;2022-07-23T00:22:23;9.02;;;6.03;;
18405;SDS011;9329;48.720;9.588;2022-07-23T00:24:51;8.35;;;6.00;;
18405;SDS011;9329;48.720;9.588;2022-07-23T00:27:18;7.47;;;5.75;;
18405;SDS011;9329;48.720;9.588;2022-07-23T00:29:46;7.68;;;5.97;;
18405;SDS011;9329;48.720;9.588;2022-07-23T00:32:13;7.47;;;6.20;;
18405;SDS011;9329;48.720;9.588;2022-07-23T00:34:40;7.35;;;6.18;;
18405;SDS011;9329;48.720;9.588;2022-07-23T00:37:07;8.23;;;5.60;;
18405;SDS011;9329;48.720;9.588;2022-07-23T00:39:34;7.22;;;6.10;;
18405;SDS011;9329;48.720;9.588;2022-07-23T00:42:01;9.25;;;6.00;;
18405;SDS011;9329;48.720;9.588;2022-07-23T00:44:28;8.02;;;6.30;;
18405;SDS011;9329;48.720;9.588;2022-07-23T00:46:57;8.07;;;6.03;;
18405;SDS011;9329;48.720;9.588;2022-07-23T00:49:25;7.95;;;5.75;;
18405;SDS011;9329;48.720;9.588;2022-07-23T00:51:54;6.80;;;5.60;;
18405;SDS011;9329;48.720;9.588;2022-07-23T00:54:22;7.15;;;5.53;;
18405;SDS011;9329;48.720;9.588;2022-07-23T00:56:50;7.88;;;5.35;;
18405;SDS011;9329;48.720;9.588;2022-07-23T00:59:17;5.78;;;5.15;;
18405;SDS011;9329;48.720;9.588;2022-07-23T01:01:44;6.63;;;5.60;;
18405;SDS011;9329;48.720;9.588;2022-07-23T01:04:15;8.95;;;5.38;;
18405;SDS011;9329;48.720;9.588;2022-07-23T01:06:43;10.15;;;6.03;;
18405;SDS011;9329;48.720;9.588;2022-07-23T01:09:11;9.85;;;6.18;;
18405;SDS011;9329;48.720;9.588;2022-07-23T01:11:38;7.82;;;6.10;;
18405;SDS011;9329;48.720;9.588;2022-07-23T01:14:09;9.07;;;6.28;;
18405;SDS011;9329;48.720;9.588;2022-07-23T01:16:37;8.02;;;6.53;;
18405;SDS011;9329;48.720;9.588;2022-07-23T01:19:05;9.10;;;6.53;;
18405;SDS011;9329;48.720;9.588;2022-07-23T01:21:37;7.03;;;6.32;;
18405;SDS011;9329;48.720;9.588;2022-07-23T01:24:07;10.13;;;6.87;;
18405;SDS011;9329;48.720;9.588;2022-07-23T01:26:37;9.30;;;6.78;;
18405;SDS011;9329;48.720;9.588;2022-07-23T01:29:07;7.30;;;6.38;;
18405;SDS011;9329;48.720;9.588;2022-07-23T01:31:34;8.57;;;6.60;;
18405;SDS011;9329;48.720;9.588;2022-07-23T01:34:02;8.38;;;6.35;;
18405;SDS011;9329;48.720;9.588;2022-07-23T01:36:29;9.63;;;6.70;;
18405;SDS011;9329;48.720;9.588;2022-07-23T01:38:58;8.73;;;6.15;;
18405;SDS011;9329;48.720;9.588;2022-07-23T01:41:27;8.85;;;6.00;;
18405;SDS011;9329;48.720;9.588;2022-07-23T01:43:54;9.70;;;6.28;;
18405;SDS011;9329;48.720;9.588;2022-07-23T01:46:23;7.40;;;5.90;;
18405;SDS011;9329;48.720;9.588;2022-07-23T01:48:50;7.57;;;6.18;;
18405;SDS011;9329;48.720;9.588;2022-07-23T01:51:37;7.60;;;6.20;;
18405;SDS011;9329;48.720;9.588;2022-07-23T01:54:25;9.80;;;6.18;;
18405;SDS011;9329;48.720;9.588;2022-07-23T01:56:53;9.85;;;6.70;;
18405;SDS011;9329;48.720;9.588;2022-07-23T01:59:20;9.05;;;6.40;;
18405;SDS011;9329;48.720;9.588;2022-07-23T02:01:47;8.75;;;6.38;;
18405;SDS011;9329;48.720;9.588;2022-07-23T02:04:16;7.32;;;6.13;;
18405;SDS011;9329;48.720;9.588;2022-07-23T02:06:43;6.43;;;5.73;;
18405;SDS011;9329;48.720;9.588;2022-07-23T02:09:10;8.00;;;5.73;;
18405;SDS011;9329;48.720;9.588;2022-07-23T02:11:37;7.60;;;5.87;;
18405;SDS011;9329;48.720;9.588;2022-07-23T02:14:06;6.90;;;6.20;;
18405;SDS011;9329;48.720;9.588;2022-07-23T02:16:33;7.22;;;5.80;;
18405;SDS011;9329;48.720;9.588;2022-07-23T02:19:01;7.45;;;6.30;;
18405;SDS011;9329;48.720;9.588;2022-07-23T02:21:28;7.85;;;6.05;;
18405;SDS011;9329;48.720;9.588;2022-07-23T02:23:55;9.60;;;6.07;;
18405;SDS011;9329;48.720;9.588;2022-07-23T02:26:22;8.18;;;6.35;;
18405;SDS011;9329;48.720;9.588;2022-07-23T02:28:52;6.73;;;6.03;;
18405;SDS011;9329;48.720;9.588;2022-07-23T02:31:20;8.53;;;6.37;;
18405;SDS011;9329;48.720;9.588;2022-07-23T02:33:47;9.05;;;6.47;;
18405;SDS011;9329;48.720;9.588;2022-07-23T02:36:16;9.35;;;6.60;;
18405;SDS011;9329;48.720;9.588;2022-07-23T02:38:43;8.75;;;6.72;;
18405;SDS011;9329;48.720;9.588;2022-07-23T02:41:10;9.27;;;6.80;;
18405;SDS011;9329;48.720;9.588;2022-07-23T02:43:38;9.52;;;6.63;;
18405;SDS011;9329;48.720;9.588;2022-07-23T02:46:05;7.65;;;6.35;;
18405;SDS011;9329;48.720;9.588;2022-07-23T02:48:34;8.87;;;6.57;;
18405;SDS011;9329;48.720;9.588;2022-07-23T02:51:01;7.07;;;6.38;;
18405;SDS011;9329;48.720;9.588;2022-07-23T02:53:34;7.97;;;6.25;;
18405;SDS011;9329;48.720;9.588;2022-07-23T02:56:01;8.95;;;6.72;;
18405;SDS011;9329;48.720;9.588;2022-07-23T02:58:29;8.15;;;6.35;;
18405;SDS011;9329;48.720;9.588;2022-07-23T03:00:56;7.93;;;6.50;;
18405;SDS011;9329;48.720;9.588;2022-07-23T03:03:24;8.05;;;6.22;;
18405;SDS011;9329;48.720;9.588;2022-07-23T03:05:53;9.37;;;6.57;;
18405;SDS011;9329;48.720;9.588;2022-07-23T03:08:20;7.95;;;5.93;;
18405;SDS011;9329;48.720;9.588;2022-07-23T03:10:50;6.70;;;5.97;;
18405;SDS011;9329;48.720;9.588;2022-07-23T03:13:17;7.38;;;6.47;;
18405;SDS011;9329;48.720;9.588;2022-07-23T03:15:44;9.57;;;6.40;;
18405;SDS011;9329;48.720;9.588;2022-07-23T03:18:12;8.82;;;6.80;;
18405;SDS011;9329;48.720;9.588;2022-07-23T03:20:39;9.38;;;7.07;;
18405;SDS011;9329;48.720;9.588;2022-07-23T03:23:09;10.30;;;7.23;;
18405;SDS011;9329;48.720;9.588;2022-07-23T03:25:37;8.30;;;7.18;;
18405;SDS011;9329;48.720;9.588;2022-07-23T03:28:04;9.35;;;7.53;;
18405;SDS011;9329;48.720;9.588;2022-07-23T03:30:31;10.65;;;7.65;;
18405;SDS011;9329;48.720;9.588;2022-07-23T03:32:58;9.93;;;7.00;;
18405;SDS011;9329;48.720;9.588;2022-07-23T03:35:25;10.20;;;7.43;;
18405;SDS011;9329;48.720;9.588;2022-07-23T03:38:10;11.82;;;7.60;;
18405;SDS011;9329;48.720;9.588;2022-07-23T03:40:37;10.65;;;7.55;;
18405;SDS011;9329;48.720;9.588;2022-07-23T03:43:04;9.32;;;7.82;;
18405;SDS011;9329;48.720;9.588;2022-07-23T03:45:31;9.68;;;7.47;;
18405;SDS011;9329;48.720;9.588;2022-07-23T03:47:59;10.83;;;7.67;;
18405;SDS011;9329;48.720;9.588;2022-07-23T03:50:27;8.85;;;7.60;;
18405;SDS011;9329;48.720;9.588;2022-07-23T03:52:55;9.15;;;7.85;;
18405;SDS011;9329;48.720;9.588;2022-07-23T03:55:23;8.57;;;7.38;;
18405;SDS011;9329;48.720;9.588;2022-07-23T03:57:51;9.80;;;7.82;;
18405;SDS011;9329;48.720;9.588;2022-07-23T04:00:18;9.90;;;7.93;;
18405;SDS011;9329;48.720;9.588;2022-07-23T04:02:48;11.32;;;8.15;;
18405;SDS011;9329;48.720;9.588;2022-07-23T04:05:16;10.60;;;7.90;;
18405;SDS011;9329;48.720;9.588;2022-07-23T04:07:46;10.60;;;7.85;;
18405;SDS011;9329;48.720;9.588;2022-07-23T04:10:13;10.18;;;7.80;;
18405;SDS011;9329;48.720;9.588;2022-07-23T04:12:42;9.43;;;7.80;;
18405;SDS011;9329;48.720;9.588;2022-07-23T04:15:09;10.23;;;7.63;;
18405;SDS011;9329;48.720;9.588;2022-07-23T04:17:37;10.10;;;7.07;;
18405;SDS011;9329;48.720;9.588;2022-07-23T04:20:05;8.02;;;7.00;;
18405;SDS011;9329;48.720;9.588;2022-07-23T04:22:38;10.83;;;7.23;;
18405;SDS011;9329;48.720;9.588;2022-07-23T04:25:06;8.50;;;6.78;;
18405;SDS011;9329;48.720;9.588;2022-07-23T04:27:34;9.52;;;7.22;;
18405;SDS011;9329;48.720;9.588;2022-07-23T04:30:02;9.47;;;7.20;;
18405;SDS011;9329;48.720;9.588;2022-07-23T04:32:30;11.65;;;7.40;;
18405;SDS011;9329;48.720;9.588;2022-07-23T04:34:57;12.32;;;7.40;;
18405;SDS011;9329;48.720;9.588;2022-07-23T04:37:24;16.92;;;7.80;;
18405;SDS011;9329;48.720;9.588;2022-07-23T04:39:51;11.10;;;7.60;;
18405;SDS011;9329;48.720;9.588;2022-07-23T04:42:18;8.88;;;7.20;;
18405;SDS011;9329;48.720;9.588;2022-07-23T04:44:45;10.90;;;7.72;;
18405;SDS011;9329;48.720;9.588;2022-07-23T04:47:14;10.30;;;7.28;;
18405;SDS011;9329;48.720;9.588;2022-07-23T04:49:43;9.48;;;7.03;;
18405;SDS011;9329;48.720;9.588;2022-07-23T04:52:10;11.32;;;7.03;;
18405;SDS011;9329;48.720;9.588;2022-07-23T04:54:37;8.77;;;7.10;;
18405;SDS011;9329;48.720;9.588;2022-07-23T04:57:04;9.93;;;7.32;;
18405;SDS011;9329;48.720;9.588;2022-07-23T04:59:31;9.05;;;7.40;;
18405;SDS011;9329;48.720;9.588;2022-07-23T05:02:02;10.88;;;7.43;;
18405;SDS011;9329;48.720;9.588;2022-07-23T05:04:32;10.48;;;7.40;;
18405;SDS011;9329;48.720;9.588;2022-07-23T05:07:03;11.00;;;7.70;;
18405;SDS011;9329;48.720;9.588;2022-07-23T05:09:31;10.70;;;6.97;;
18405;SDS011;9329;48.720;9.588;2022-07-23T05:11:59;9.57;;;7.00;;
18405;SDS011;9329;48.720;9.588;2022-07-23T05:14:26;9.25;;;7.32;;
18405;SDS011;9329;48.720;9.588;2022-07-23T05:16:53;11.48;;;7.22;;
18405;SDS011;9329;48.720;9.588;2022-07-23T05:19:22;9.18;;;7.15;;
18405;SDS011;9329;48.720;9.588;2022-07-23T05:21:50;8.73;;;6.80;;
18405;SDS011;9329;48.720;9.588;2022-07-23T05:24:18;9.98;;;7.50;;
18405;SDS011;9329;48.720;9.588;2022-07-23T05:26:45;10.10;;;7.00;;
18405;SDS011;9329;48.720;9.588;2022-07-23T05:29:12;8.68;;;6.95;;
18405;SDS011;9329;48.720;9.588;2022-07-23T05:31:39;11.85;;;7.10;;
18405;SDS011;9329;48.720;9.588;2022-07-23T05:34:06;8.85;;;6.10;;
18405;SDS011;9329;48.720;9.588;2022-07-23T05:36:35;7.65;;;6.43;;
18405;SDS011;9329;48.720;9.588;2022-07-23T05:39:03;9.20;;;6.53;;
18405;SDS011;9329;48.720;9.588;2022-07-23T05:41:35;7.63;;;6.40;;
18405;SDS011;9329;48.720;9.588;2022-07-23T05:44:03;7.73;;;5.90;;
18405;SDS011;9329;48.720;9.588;2022-07-23T05:46:31;7.70;;;6.30;;
18405;SDS011;9329;48.720;9.588;2022-07-23T05:49:04;10.50;;;6.22;;
18405;SDS011;9329;48.720;9.588;2022-07-23T05:51:49;8.82;;;6.30;;
18405;SDS011;9329;48.720;9.588;2022-07-23T05:54:27;8.05;;;6.38;;
18405;SDS011;9329;48.720;9.588;2022-07-23T05:56:54;8.47;;;6.73;;
18405;SDS011;9329;48.720;9.588;2022-07-23T05:59:21;8.93;;;6.65;;
18405;SDS011;9329;48.720;9.588;2022-07-23T06:01:48;7.50;;;6.30;;
18405;SDS011;9329;48.720;9.588;2022-07-23T06:04:16;8.15;;;6.70;;
18405;SDS011;9329;48.720;9.588;2022-07-23T06:06:53;10.43;;;6.43;;
18405;SDS011;9329;48.720;9.588;2022-07-23T06:09:20;8.13;;;6.13;;
18405;SDS011;9329;48.720;9.588;2022-07-23T06:11:50;10.15;;;6.22;;
18405;SDS011;9329;48.720;9.588;2022-07-23T06:14:17;6.70;;;6.00;;
18405;SDS011;9329;48.720;9.588;2022-07-23T06:16:50;8.68;;;6.57;;
18405;SDS011;9329;48.720;9.588;2022-07-23T06:19:17;7.32;;;6.07;;
18405;SDS011;9329;48.720;9.588;2022-07-23T06:21:45;11.93;;;6.55;;
18405;SDS011;9329;48.720;9.588;2022-07-23T06:24:12;8.18;;;6.55;;
18405;SDS011;9329;48.720;9.588;2022-07-23T06:26:40;8.70;;;6.50;;
18405;SDS011;9329;48.720;9.588;2022-07-23T06:29:08;9.13;;;6.32;;
18405;SDS011;9329;48.720;9.588;2022-07-23T06:31:35;8.10;;;6.22;;
18405;SDS011;9329;48.720;9.588;2022-07-23T06:34:02;7.15;;;6.03;;
18405;SDS011;9329;48.720;9.588;2022-07-23T06:36:29;7.70;;;6.25;;
18405;SDS011;9329;48.720;9.588;2022-07-23T06:38:56;10.35;;;6.32;;
18405;SDS011;9329;48.720;9.588;2022-07-23T06:41:23;7.05;;;5.93;;
18405;SDS011;9329;48.720;9.588;2022-07-23T06:43:51;7.00;;;5.90;;
18405;SDS011;9329;48.720;9.588;2022-07-23T06:46:21;7.32;;;5.80;;
18405;SDS011;9329;48.720;9.588;2022-07-23T06:48:49;7.55;;;5.65;;
18405;SDS011;9329;48.720;9.588;2022-07-23T06:51:16;8.43;;;5.83;;
18405;SDS011;9329;48.720;9.588;2022-07-23T06:53:44;6.93;;;5.82;;
18405;SDS011;9329;48.720;9.588;2022-07-23T06:56:11;8.20;;;6.07;;
18405;SDS011;9329;48.720;9.588;2022-07-23T06:58:39;8.02;;;6.15;;
18405;SDS011;9329;48.720;9.588;2022-07-23T07:01:06;7.80;;;6.00;;
18405;SDS011;9329;48.720;9.588;2022-07-23T07:03:35;6.27;;;5.67;;
18405;SDS011;9329;48.720;9.588;2022-07-23T07:06:02;7.70;;;6.30;;
18405;SDS011;9329;48.720;9.588;2022-07-23T07:08:30;8.70;;;5.63;;
18405;SDS011;9329;48.720;9.588;2022-07-23T07:10:57;9.03;;;5.80;;
18405;SDS011;9329;48.720;9.588;2022-07-23T07:13:24;7.75;;;5.55;;
18405;SDS011;9329;48.720;9.588;2022-07-23T07:15:51;9.20;;;5.97;;
18405;SDS011;9329;48.720;9.588;2022-07-23T07:18:18;9.48;;;6.10;;
18405;SDS011;9329;48.720;9.588;2022-07-23T07:20:47;7.32;;;5.65;;
18405;SDS011;9329;48.720;9.588;2022-07-23T07:23:14;9.17;;;5.83;;
18405;SDS011;9329;48.720;9.588;2022-07-23T07:25:41;7.22;;;5.93;;
18405;SDS011;9329;48.720;9.588;2022-07-23T07:28:08;7.63;;;6.07;;
18405;SDS011;9329;48.720;9.588;2022-07-23T07:30:35;7.10;;;5.55;;
18405;SDS011;9329;48.720;9.588;2022-07-23T07:33:02;7.97;;;5.77;;
18405;SDS011;9329;48.720;9.588;2022-07-23T07:35:29;7.28;;;6.30;;
18405;SDS011;9329;48.720;9.588;2022-07-23T07:37:58;6.43;;;5.60;;
18405;SDS011;9329;48.720;9.588;2022-07-23T07:40:26;9.18;;;5.65;;
18405;SDS011;9329;48.720;9.588;2022-07-23T07:42:54;7.60;;;5.90;;
18405;SDS011;9329;48.720;9.588;2022-07-23T07:45:22;8.40;;;5.50;;
18405;SDS011;9329;48.720;9.588;2022-07-23T07:47:50;7.57;;;5.50;;
18405;SDS011;9329;48.720;9.588;2022-07-23T07:50:18;8.90;;;5.47;;
18405;SDS011;9329;48.720;9.588;2022-07-23T07:52:45;8.70;;;6.07;;
18405;SDS011;9329;48.720;9.588;2022-07-23T07:55:13;7.15;;;5.65;;
18405;SDS011;9329;48.720;9.588;2022-07-23T07:57:41;6.87;;;5.70;;
18405;SDS011;9329;48.720;9.588;2022-07-23T08:00:08;7.68;;;5.68;;
18405;SDS011;9329;48.720;9.588;2022-07-23T08:02:40;7.07;;;5.67;;
18405;SDS011;9329;48.720;9.588;2022-07-23T08:05:11;7.72;;;5.57;;
18405;SDS011;9329;48.720;9.588;2022-07-23T08:07:38;6.60;;;5.25;;
18405;SDS011;9329;48.720;9.588;2022-07-23T08:10:06;7.45;;;5.30;;
18405;SDS011;9329;48.720;9.588;2022-07-23T08:12:40;7.93;;;5.80;;
18405;SDS011;9329;48.720;9.588;2022-07-23T08:15:08;8.80;;;5.28;;
18405;SDS011;9329;48.720;9.588;2022-07-23T08:17:35;7.93;;;5.40;;
18405;SDS011;9329;48.720;9.588;2022-07-23T08:20:03;7.93;;;5.60;;
18405;SDS011;9329;48.720;9.588;2022-07-23T08:22:44;6.28;;;5.07;;
18405;SDS011;9329;48.720;9.588;2022-07-23T08:25:13;8.90;;;5.15;;
18405;SDS011;9329;48.720;9.588;2022-07-23T08:27:42;6.15;;;5.00;;
18405;SDS011;9329;48.720;9.588;2022-07-23T08:30:09;8.00;;;5.10;;
18405;SDS011;9329;48.720;9.588;2022-07-23T08:32:50;7.43;;;5.40;;
18405;SDS011;9329;48.720;9.588;2022-07-23T08:35:21;7.22;;;5.30;;
18405;SDS011;9329;48.720;9.588;2022-07-23T08:37:50;6.78;;;5.00;;
18405;SDS011;9329;48.720;9.588;2022-07-23T08:40:17;8.13;;;5.35;;
18405;SDS011;9329;48.720;9.588;2022-07-23T08:42:47;8.37;;;5.50;;
18405;SDS011;9329;48.720;9.588;2022-07-23T08:45:16;6.77;;;5.40;;
18405;SDS011;9329;48.720;9.588;2022-07-23T08:47:46;7.28;;;5.10;;
18405;SDS011;9329;48.720;9.588;2022-07-23T08:50:17;7.43;;;5.25;;
18405;SDS011;9329;48.720;9.588;2022-07-23T08:52:44;5.70;;;5.03;;
18405;SDS011;9329;48.720;9.588;2022-07-23T08:55:12;6.97;;;5.30;;
18405;SDS011;9329;48.720;9.588;2022-07-23T08:57:39;5.80;;;5.00;;
18405;SDS011;9329;48.720;9.588;2022-07-23T09:00:08;6.40;;;5.53;;
18405;SDS011;9329;48.720;9.588;2022-07-23T09:37:33;7.57;;;5.68;;
18405;SDS011;9329;48.720;9.588;2022-07-23T09:40:04;7.20;;;5.70;;
18405;SDS011;9329;48.720;9.588;2022-07-23T09:42:37;8.63;;;6.00;;
18405;SDS011;9329;48.720;9.588;2022-07-23T09:45:04;8.27;;;5.47;;
18405;SDS011;9329;48.720;9.588;2022-07-23T09:47:37;9.63;;;5.90;;
18405;SDS011;9329;48.720;9.588;2022-07-23T09:50:06;7.40;;;5.80;;
18405;SDS011;9329;48.720;9.588;2022-07-23T09:52:45;6.80;;;5.85;;
18405;SDS011;9329;48.720;9.588;2022-07-23T10:05:39;6.72;;;5.55;;
18405;SDS011;9329;48.720;9.588;2022-07-23T10:08:10;7.25;;;5.68;;
18405;SDS011;9329;48.720;9.588;2022-07-23T10:10:38;8.05;;;5.25;;
18405;SDS011;9329;48.720;9.588;2022-07-23T10:13:25;6.72;;;5.60;;
18405;SDS011;9329;48.720;9.588;2022-07-23T10:16:09;7.43;;;5.78;;
18405;SDS011;9329;48.720;9.588;2022-07-23T10:18:37;7.38;;;6.18;;
18405;SDS011;9329;48.720;9.588;2022-07-23T10:21:06;7.90;;;6.18;;
18405;SDS011;9329;48.720;9.588;2022-07-23T10:23:35;6.85;;;5.70;;
18405;SDS011;9329;48.720;9.588;2022-07-23T10:26:11;6.53;;;5.18;;
18405;SDS011;9329;48.720;9.588;2022-07-23T10:28:54;7.43;;;5.32;;
18405;SDS011;9329;48.720;9.588;2022-07-23T10:31:31;7.90;;;5.32;;
18405;SDS011;9329;48.720;9.588;2022-07-23T10:34:09;5.55;;;4.90;;
18405;SDS011;9329;48.720;9.588;2022-07-23T10:36:44;6.00;;;4.97;;
18405;SDS011;9329;48.720;9.588;2022-07-23T10:39:17;6.30;;;5.00;;
18405;SDS011;9329;48.720;9.588;2022-07-23T10:41:48;8.00;;;4.82;;
18405;SDS011;9329;48.720;9.588;2022-07-23T10:44:17;5.88;;;5.05;;
18405;SDS011;9329;48.720;9.588;2022-07-23T10:46:58;7.45;;;5.28;;
18405;SDS011;9329;48.720;9.588;2022-07-23T10:49:43;5.53;;;4.97;;
18405;SDS011;9329;48.720;9.588;2022-07-23T10:52:24;5.57;;;4.70;;
18405;SDS011;9329;48.720;9.588;2022-07-23T10:54:53;6.47;;;5.30;;
18405;SDS011;9329;48.720;9.588;2022-07-23T10:57:23;5.88;;;5.07;;
18405;SDS011;9329;48.720;9.588;2022-07-23T11:02:43;6.53;;;5.10;;
18405;SDS011;9329;48.720;9.588;2022-07-23T11:05:12;5.78;;;5.13;;
18405;SDS011;9329;48.720;9.588;2022-07-23T11:10:43;6.38;;;5.10;;
18405;SDS011;9329;48.720;9.588;2022-07-23T11:13:28;9.65;;;5.55;;
18405;SDS011;9329;48.720;9.588;2022-07-23T11:16:07;6.47;;;5.05;;
18405;SDS011;9329;48.720;9.588;2022-07-23T11:18:54;6.88;;;5.43;;
18405;SDS011;9329;48.720;9.588;2022-07-23T11:21:46;6.85;;;5.07;;
18405;SDS011;9329;48.720;9.588;2022-07-23T11:24:22;7.82;;;5.50;;
18405;SDS011;9329;48.720;9.588;2022-07-23T11:26:57;7.90;;;5.72;;
18405;SDS011;9329;48.720;9.588;2022-07-23T11:32:30;10.65;;;5.57;;
18405;SDS011;9329;48.720;9.588;2022-07-23T11:35:00;5.80;;;5.30;;
18405;SDS011;9329;48.720;9.588;2022-07-23T11:37:31;7.05;;;5.20;;
18405;SDS011;9329;48.720;9.588;2022-07-23T11:40:03;7.38;;;5.45;;
18405;SDS011;9329;48.720;9.588;2022-07-23T11:42:33;7.75;;;5.03;;
18405;SDS011;9329;48.720;9.588;2022-07-23T11:45:02;8.25;;;5.22;;
18405;SDS011;9329;48.720;9.588;2022-07-23T11:47:30;7.13;;;5.03;;
18405;SDS011;9329;48.720;9.588;2022-07-23T11:49:57;6.90;;;5.15;;
18405;SDS011;9329;48.720;9.588;2022-07-23T11:52:26;7.78;;;5.43;;
18405;SDS011;9329;48.720;9.588;2022-07-23T11:54:55;8.80;;;4.53;;
18405;SDS011;9329;48.720;9.588;2022-07-23T11:57:26;5.50;;;4.57;;
18405;SDS011;9329;48.720;9.588;2022-07-23T11:59:55;6.90;;;4.57;;
18405;SDS011;9329;48.720;9.588;2022-07-23T12:02:23;5.82;;;4.07;;
18405;SDS011;9329;48.720;9.588;2022-07-23T12:04:52;6.43;;;4.10;;
18405;SDS011;9329;48.720;9.588;2022-07-23T12:07:29;4.45;;;4.00;;
18405;SDS011;9329;48.720;9.588;2022-07-23T12:09:59;5.40;;;4.13;;
18405;SDS011;9329;48.720;9.588;2022-07-23T12:12:29;6.10;;;3.97;;
18405;SDS011;9329;48.720;9.588;2022-07-23T12:15:03;4.63;;;3.80;;
18405;SDS011;9329;48.720;9.588;2022-07-23T12:17:34;5.55;;;3.80;;
18405;SDS011;9329;48.720;9.588;2022-07-23T12:20:03;5.68;;;4.03;;
18405;SDS011;9329;48.720;9.588;2022-07-23T17:30:57;8.18;;;7.10;;
18405;SDS011;9329;48.720;9.588;2022-07-23T17:33:24;12.50;;;7.35;;
18405;SDS011;9329;48.720;9.588;2022-07-23T17:35:52;19.45;;;8.20;;
18405;SDS011;9329;48.720;9.588;2022-07-23T17:38:20;11.35;;;7.97;;
18405;SDS011;9329;48.720;9.588;2022-07-23T17:40:48;9.38;;;7.07;;
18405;SDS011;9329;48.720;9.588;2022-07-23T17:43:16;14.13;;;6.90;;
18405;SDS011;9329;48.720;9.588;2022-07-23T17:45:43;9.80;;;7.38;;
18405;SDS011;9329;48.720;9.588;2022-07-23T17:48:12;10.63;;;6.80;;
18405;SDS011;9329;48.720;9.588;2022-07-23T17:50:39;10.02;;;7.00;;
18405;SDS011;9329;48.720;9.588;2022-07-23T17:53:06;9.50;;;6.95;;
18405;SDS011;9329;48.720;9.588;2022-07-23T17:55:33;8.68;;;6.53;;
18405;SDS011;9329;48.720;9.588;2022-07-23T17:58:01;10.57;;;7.13;;
18405;SDS011;9329;48.720;9.588;2022-07-23T18:00:29;7.90;;;6.80;;
18405;SDS011;9329;48.720;9.588;2022-07-23T18:02:58;7.35;;;6.50;;
18405;SDS011;9329;48.720;9.588;2022-07-23T18:05:27;8.30;;;7.18;;
18405;SDS011;9329;48.720;9.588;2022-07-23T18:07:54;8.18;;;7.00;;
18405;SDS011;9329;48.720;9.588;2022-07-23T18:10:22;7.80;;;6.80;;
18405;SDS011;9329;48.720;9.588;2022-07-23T18:12:49;8.90;;;6.93;;
18405;SDS011;9329;48.720;9.588;2022-07-23T18:17:44;10.57;;;7.45;;
18405;SDS011;9329;48.720;9.588;2022-07-23T18:20:11;9.50;;;7.25;;
18405;SDS011;9329;48.720;9.588;2022-07-23T18:22:41;9.50;;;7.03;;
18405;SDS011;9329;48.720;9.588;2022-07-23T18:25:08;11.45;;;7.55;;
18405;SDS011;9329;48.720;9.588;2022-07-23T18:27:37;9.98;;;7.72;;
18405;SDS011;9329;48.720;9.588;2022-07-23T18:30:05;10.52;;;7.70;;
18405;SDS011;9329;48.720;9.588;2022-07-23T18:32:34;8.87;;;7.80;;
18405;SDS011;9329;48.720;9.588;2022-07-23T18:35:01;10.70;;;8.10;;
18405;SDS011;9329;48.720;9.588;2022-07-23T18:37:28;10.40;;;7.60;;
18405;SDS011;9329;48.720;9.588;2022-07-23T18:39:57;10.82;;;7.53;;
18405;SDS011;9329;48.720;9.588;2022-07-23T18:42:25;10.70;;;7.65;;
18405;SDS011;9329;48.720;9.588;2022-07-23T18:44:52;10.17;;;8.13;;
18405;SDS011;9329;48.720;9.588;2022-07-23T18:47:19;13.40;;;8.20;;
18405;SDS011;9329;48.720;9.588;2022-07-23T18:49:46;12.70;;;8.77;;
18405;SDS011;9329;48.720;9.588;2022-07-23T18:52:13;13.13;;;8.88;;
18405;SDS011;9329;48.720;9.588;2022-07-23T18:54:40;12.32;;;8.40;;
18405;SDS011;9329;48.720;9.588;2022-07-23T18:57:09;9.83;;;8.07;;
18405;SDS011;9329;48.720;9.588;2022-07-23T18:59:36;12.63;;;8.60;;
18405;SDS011;9329;48.720;9.588;2022-07-23T19:02:03;10.30;;;8.30;;
18405;SDS011;9329;48.720;9.588;2022-07-23T19:04:30;12.53;;;8.70;;
18405;SDS011;9329;48.720;9.588;2022-07-23T19:06:58;12.87;;;9.50;;
18405;SDS011;9329;48.720;9.588;2022-07-23T19:09:25;15.18;;;9.85;;
18405;SDS011;9329;48.720;9.588;2022-07-23T19:11:52;12.70;;;9.45;;
18405;SDS011;9329;48.720;9.588;2022-07-23T19:14:20;12.27;;;10.00;;
18405;SDS011;9329;48.720;9.588;2022-07-23T19:16:48;13.70;;;8.80;;
18405;SDS011;9329;48.720;9.588;2022-07-23T19:19:15;12.48;;;8.90;;
18405;SDS011;9329;48.720;9.588;2022-07-23T19:21:42;10.48;;;8.90;;
18405;SDS011;9329;48.720;9.588;2022-07-23T19:24:09;12.57;;;8.80;;
18405;SDS011;9329;48.720;9.588;2022-07-23T19:26:36;9.90;;;8.80;;
18405;SDS011;9329;48.720;9.588;2022-07-23T19:29:03;10.07;;;8.63;;
18405;SDS011;9329;48.720;9.588;2022-07-23T19:31:32;14.52;;;8.93;;
18405;SDS011;9329;48.720;9.588;2022-07-23T19:33:59;13.38;;;9.10;;
18405;SDS011;9329;48.720;9.588;2022-07-23T19:36:26;12.97;;;9.10;;
18405;SDS011;9329;48.720;9.588;2022-07-23T19:38:53;12.48;;;9.00;;
18405;SDS011;9329;48.720;9.588;2022-07-23T19:41:20;13.68;;;9.00;;
18405;SDS011;9329;48.720;9.588;2022-07-23T19:43:47;12.15;;;8.90;;
18405;SDS011;9329;48.720;9.588;2022-07-23T19:46:18;13.52;;;8.95;;
18405;SDS011;9329;48.720;9.588;2022-07-23T19:48:46;11.55;;;9.05;;
18405;SDS011;9329;48.720;9.588;2022-07-23T19:51:14;11.33;;;9.00;;
18405;SDS011;9329;48.720;9.588;2022-07-23T19:53:41;11.73;;;9.27;;
18405;SDS011;9329;48.720;9.588;2022-07-23T19:56:08;11.90;;;9.60;;
18405;SDS011;9329;48.720;9.588;2022-07-23T19:58:36;12.45;;;9.50;;
18405;SDS011;9329;48.720;9.588;2022-07-23T20:01:04;10.93;;;9.30;;
18405;SDS011;9329;48.720;9.588;2022-07-23T20:03:31;13.52;;;9.20;;
18405;SDS011;9329;48.720;9.588;2022-07-23T20:06:00;13.07;;;9.60;;
18405;SDS011;9329;48.720;9.588;2022-07-23T20:08:28;11.07;;;9.45;;
18405;SDS011;9329;48.720;9.588;2022-07-23T20:10:55;13.57;;;10.23;;
18405;SDS011;9329;48.720;9.588;2022-07-23T20:13:23;13.73;;;10.20;;
18405;SDS011;9329;48.720;9.588;2022-07-23T20:15:51;13.93;;;10.48;;
18405;SDS011;9329;48.720;9.588;2022-07-23T20:18:19;13.02;;;10.65;;
18405;SDS011;9329;48.720;9.588;2022-07-23T20:20:47;13.27;;;9.98;;
18405;SDS011;9329;48.720;9.588;2022-07-23T20:23:16;14.38;;;10.68;;
18405;SDS011;9329;48.720;9.588;2022-07-23T20:25:44;14.57;;;11.10;;
18405;SDS011;9329;48.720;9.588;2022-07-23T20:28:12;15.20;;;11.07;;
18405;SDS011;9329;48.720;9.588;2022-07-23T20:30:40;14.17;;;10.50;;
18405;SDS011;9329;48.720;9.588;2022-07-23T20:33:11;15.35;;;10.40;;
18405;SDS011;9329;48.720;9.588;2022-07-23T20:35:39;13.07;;;10.20;;
18405;SDS011;9329;48.720;9.588;2022-07-23T20:38:06;13.50;;;10.07;;
18405;SDS011;9329;48.720;9.588;2022-07-23T20:40:38;13.30;;;10.00;;
18405;SDS011;9329;48.720;9.588;2022-07-23T20:43:07;13.45;;;9.93;;
18405;SDS011;9329;48.720;9.588;2022-07-23T20:45:35;11.67;;;10.27;;
18405;SDS011;9329;48.720;9.588;2022-07-23T20:48:03;14.93;;;10.60;;
18405;SDS011;9329;48.720;9.588;2022-07-23T20:50:30;11.70;;;10.50;;
18405;SDS011;9329;48.720;9.588;2022-07-23T20:52:57;14.60;;;10.60;;
18405;SDS011;9329;48.720;9.588;2022-07-23T20:55:25;12.43;;;10.55;;
18405;SDS011;9329;48.720;9.588;2022-07-23T20:57:54;12.95;;;10.98;;
18405;SDS011;9329;48.720;9.588;2022-07-23T21:00:21;14.03;;;11.73;;
18405;SDS011;9329;48.720;9.588;2022-07-23T21:02:48;12.60;;;10.35;;
18405;SDS011;9329;48.720;9.588;2022-07-23T21:05:16;13.55;;;10.55;;
18405;SDS011;9329;48.720;9.588;2022-07-23T21:07:43;13.60;;;10.60;;
18405;SDS011;9329;48.720;9.588;2022-07-23T21:10:11;13.45;;;10.35;;